createdAt,value
2023-03-03T00:00:47.678Z,-2.40
2023-03-03T00:03:22.744Z,-2.40
2023-03-03T00:05:51.461Z,-2.40
2023-03-03T00:08:21.308Z,-2.40
2023-03-03T00:13:47.315Z,-2.40
2023-03-03T00:16:26.492Z,-2.30
2023-03-03T00:18:56.737Z,-2.30
2023-03-03T00:21:30.367Z,-2.30
2023-03-03T00:24:21.923Z,-2.30
2023-03-03T00:26:55.539Z,-2.30
2023-03-03T00:29:37.188Z,-2.30
2023-03-03T00:32:25.671Z,-2.50
2023-03-03T00:35:02.861Z,-2.50
2023-03-03T00:37:34.887Z,-2.50
2023-03-03T00:40:23.961Z,-2.50
2023-03-03T00:42:56.112Z,-2.60
2023-03-03T00:45:36.703Z,-2.60
2023-03-03T00:48:22.560Z,-2.50
2023-03-03T00:50:52.263Z,-2.60
2023-03-03T00:53:22.110Z,-2.70
2023-03-03T00:55:52.355Z,-2.70
2023-03-03T00:58:23.529Z,-2.80
2023-03-03T01:00:53.960Z,-2.80
2023-03-03T01:03:25.607Z,-2.80
2023-03-03T01:05:55.250Z,-2.80
2023-03-03T01:08:24.218Z,-2.80
2023-03-03T01:10:55.902Z,-2.70
2023-03-03T01:13:30.190Z,-2.80
2023-03-03T01:16:00.444Z,-2.70
2023-03-03T01:18:30.410Z,-2.80
2023-03-03T01:20:59.099Z,-2.70
2023-03-03T01:23:27.581Z,-2.70
2023-03-03T01:25:56.092Z,-2.60
2023-03-03T01:28:25.902Z,-2.50
2023-03-03T01:30:55.144Z,-2.50
2023-03-03T01:33:23.889Z,-2.40
2023-03-03T01:35:52.388Z,-2.40
2023-03-03T01:38:22.599Z,-2.40
2023-03-03T01:40:55.334Z,-2.60
2023-03-03T01:43:28.067Z,-2.60
2023-03-03T01:46:32.000Z,-2.70
2023-03-03T01:49:05.299Z,-2.80
2023-03-03T01:51:37.562Z,-2.90
2023-03-03T01:54:11.420Z,-3.00
2023-03-03T01:56:40.248Z,-3.00
2023-03-03T01:59:16.999Z,-3.00
2023-03-03T02:01:47.026Z,-3.00
2023-03-03T02:04:15.917Z,-3.00
2023-03-03T02:06:52.177Z,-3.10
2023-03-03T02:09:28.924Z,-3.10
2023-03-03T02:12:02.869Z,-3.10
2023-03-03T02:14:32.922Z,-3.10
2023-03-03T02:17:01.362Z,-3.10
2023-03-03T02:19:39.770Z,-3.10
2023-03-03T02:22:08.783Z,-3.10
2023-03-03T02:24:43.510Z,-3.10
2023-03-03T02:27:14.163Z,-3.10
2023-03-03T02:29:42.593Z,-3.20
2023-03-03T02:32:11.032Z,-3.30
2023-03-03T02:34:52.168Z,-3.40
2023-03-03T02:37:21.866Z,-3.40
2023-03-03T02:39:50.531Z,-3.50
2023-03-03T02:42:25.094Z,-3.40
2023-03-03T02:44:53.540Z,-3.50
2023-03-03T02:47:22.020Z,-3.40
2023-03-03T02:49:50.687Z,-3.50
2023-03-03T02:52:19.199Z,-3.50
2023-03-03T02:54:48.121Z,-3.40
2023-03-03T02:57:16.695Z,-3.50
2023-03-03T02:59:46.903Z,-3.50
2023-03-03T03:02:15.430Z,-3.50
2023-03-03T03:04:44.199Z,-3.50
2023-03-03T03:07:12.844Z,-3.50
2023-03-03T03:09:41.710Z,-3.60
2023-03-03T03:12:10.223Z,-3.50
2023-03-03T03:14:38.715Z,-3.50
2023-03-03T03:17:08.790Z,-3.60
2023-03-03T03:19:37.277Z,-3.60
2023-03-03T03:22:05.785Z,-3.70
2023-03-03T03:24:34.344Z,-3.60
2023-03-03T03:27:03.027Z,-3.70
2023-03-03T03:29:31.795Z,-3.70
2023-03-03T03:32:02.929Z,-3.70
2023-03-03T03:34:32.941Z,-3.60
2023-03-03T03:37:01.621Z,-3.60
2023-03-03T03:39:30.339Z,-3.70
2023-03-03T03:41:58.839Z,-3.70
2023-03-03T03:44:27.537Z,-3.70
2023-03-03T03:46:56.211Z,-3.80
2023-03-03T03:49:24.703Z,-3.70
2023-03-03T03:51:54.581Z,-3.70
2023-03-03T03:54:23.064Z,-3.70
2023-03-03T03:56:51.816Z,-3.80
2023-03-03T03:59:20.290Z,-3.80
2023-03-03T04:01:50.176Z,-3.90
2023-03-03T04:04:18.714Z,-4.00
2023-03-03T04:06:47.213Z,-4.00
2023-03-03T04:09:17.715Z,-4.00
2023-03-03T04:11:46.217Z,-4.00
2023-03-03T04:14:14.969Z,-4.00
2023-03-03T04:16:43.484Z,-3.90
2023-03-03T04:19:11.982Z,-3.90
2023-03-03T04:21:40.659Z,-3.90
2023-03-03T04:24:09.812Z,-3.80
2023-03-03T04:26:40.202Z,-3.80
2023-03-03T04:29:08.686Z,-3.90
2023-03-03T04:31:37.191Z,-3.90
2023-03-03T04:34:05.690Z,-3.90
2023-03-03T04:36:34.298Z,-3.80
2023-03-03T04:39:02.990Z,-3.80
2023-03-03T04:41:31.576Z,-3.80
2023-03-03T04:44:01.418Z,-3.70
2023-03-03T04:46:30.195Z,-3.60
2023-03-03T04:48:58.680Z,-3.50
2023-03-03T04:51:27.204Z,-3.50
2023-03-03T04:53:55.929Z,-3.40
2023-03-03T04:56:24.396Z,-3.40
2023-03-03T04:58:52.893Z,-3.40
2023-03-03T05:01:22.760Z,-3.40
2023-03-03T05:03:51.317Z,-3.30
2023-03-03T05:06:20.179Z,-3.30
2023-03-03T05:08:49.045Z,-3.30
2023-03-03T05:11:17.638Z,-3.30
2023-03-03T05:13:46.145Z,-3.20
2023-03-03T05:16:15.042Z,-3.20
2023-03-03T05:18:45.655Z,-3.10
2023-03-03T05:21:14.170Z,-3.10
2023-03-03T05:23:42.692Z,-3.00
2023-03-03T05:26:11.391Z,-3.00
2023-03-03T05:28:39.965Z,-2.80
2023-03-03T05:33:58.748Z,-2.70
2023-03-03T05:36:29.512Z,-2.60
2023-03-03T05:38:58.083Z,-2.60
2023-03-03T05:41:26.750Z,-2.60
2023-03-03T05:43:55.482Z,-2.60
2023-03-03T05:46:23.956Z,-2.50
2023-03-03T05:48:52.413Z,-2.40
2023-03-03T05:51:22.261Z,-2.50
2023-03-03T05:56:39.198Z,-2.40
2023-03-03T05:59:07.998Z,-2.30
2023-03-03T06:01:36.746Z,-2.30
2023-03-03T06:04:05.848Z,-2.20
2023-03-03T06:06:35.955Z,-2.10
2023-03-03T06:09:05.164Z,-2.10
2023-03-03T06:11:33.998Z,-2.00
2023-03-03T06:16:31.360Z,-2.00
2023-03-03T06:18:59.852Z,-1.90
2023-03-03T06:21:28.344Z,-1.90
2023-03-03T06:23:58.210Z,-1.90
2023-03-03T06:26:26.705Z,-1.90
2023-03-03T06:28:55.426Z,-1.80
2023-03-03T06:31:24.033Z,-1.80
2023-03-03T06:33:52.930Z,-1.70
2023-03-03T06:36:21.910Z,-1.70
2023-03-03T06:38:50.536Z,-1.70
2023-03-03T06:41:20.998Z,-1.70
2023-03-03T06:43:49.597Z,-1.70
2023-03-03T06:46:18.270Z,-1.70
2023-03-03T06:48:46.746Z,-1.60
2023-03-03T06:51:26.872Z,-1.50
2023-03-03T06:53:58.783Z,-1.50
2023-03-03T06:56:29.751Z,-1.40
2023-03-03T06:59:00.125Z,-1.40
2023-03-03T07:01:32.174Z,-1.40
2023-03-03T07:04:03.807Z,-1.30
2023-03-03T07:06:37.126Z,-1.30
2023-03-03T07:09:09.846Z,-1.30
2023-03-03T07:11:41.178Z,-1.20
2023-03-03T07:14:18.193Z,-1.10
2023-03-03T07:16:46.882Z,-1.10
2023-03-03T07:19:23.406Z,-1.10
2023-03-03T07:21:53.729Z,-1.00
2023-03-03T07:24:29.330Z,-1.00
2023-03-03T07:27:09.159Z,-0.90
2023-03-03T07:29:41.832Z,-0.90
2023-03-03T07:32:26.550Z,-0.90
2023-03-03T07:34:57.123Z,-0.90
2023-03-03T07:37:33.023Z,-0.90
2023-03-03T07:40:02.789Z,-0.70
2023-03-03T07:42:45.752Z,-0.70
2023-03-03T07:45:28.758Z,-0.70
2023-03-03T07:48:10.642Z,-0.60
2023-03-03T07:50:39.069Z,-0.50
2023-03-03T07:53:16.739Z,-0.40
2023-03-03T07:55:45.884Z,-0.40
2023-03-03T07:58:24.875Z,-0.30
2023-03-03T08:01:30.815Z,-0.30
2023-03-03T08:03:59.903Z,-0.30
2023-03-03T08:06:48.651Z,-0.20
2023-03-03T08:09:52.156Z,-0.20
2023-03-03T08:12:42.012Z,-0.20
2023-03-03T08:15:34.201Z,0.00
2023-03-03T08:18:05.366Z,0.00
2023-03-03T08:20:52.510Z,0.10
2023-03-03T08:23:22.951Z,0.10
2023-03-03T08:25:53.457Z,0.10
2023-03-03T08:28:23.298Z,0.20
2023-03-03T08:31:05.553Z,0.20
2023-03-03T08:33:37.870Z,0.30
2023-03-03T08:36:10.751Z,0.30
2023-03-03T08:38:39.813Z,0.30
2023-03-03T08:41:08.861Z,0.40
2023-03-03T08:43:37.366Z,0.40
2023-03-03T08:46:10.392Z,0.40
2023-03-03T08:48:39.317Z,0.40
2023-03-03T08:51:08.926Z,0.50
2023-03-03T08:53:38.321Z,0.60
2023-03-03T08:56:08.321Z,0.70
2023-03-03T08:58:36.883Z,0.70
2023-03-03T09:01:06.994Z,0.70
2023-03-03T09:03:35.517Z,0.90
2023-03-03T09:06:04.226Z,0.80
2023-03-03T09:08:33.214Z,0.90
2023-03-03T09:11:02.410Z,1.00
2023-03-03T09:13:31.804Z,1.00
2023-03-03T09:16:00.621Z,1.10
2023-03-03T09:18:38.236Z,1.20
2023-03-03T09:21:23.166Z,1.20
2023-03-03T09:23:57.043Z,1.40
2023-03-03T09:26:30.702Z,1.40
2023-03-03T09:29:27.657Z,1.40
2023-03-03T09:31:59.191Z,1.50
2023-03-03T09:34:40.323Z,1.60
2023-03-03T09:37:23.183Z,1.60
2023-03-03T09:39:53.611Z,1.70
2023-03-03T09:42:54.881Z,1.70
2023-03-03T09:45:42.386Z,1.70
2023-03-03T09:48:35.456Z,1.90
2023-03-03T09:51:39.808Z,1.90
2023-03-03T09:54:25.279Z,2.00
2023-03-03T09:57:06.610Z,2.10
2023-03-03T10:00:00.930Z,2.30
2023-03-03T10:02:56.845Z,2.30
2023-03-03T10:05:40.362Z,2.40
2023-03-03T10:08:40.847Z,2.50
2023-03-03T10:11:24.518Z,2.70
2023-03-03T10:14:20.063Z,2.80
2023-03-03T10:17:10.574Z,2.80
2023-03-03T10:19:42.278Z,2.90
2023-03-03T10:22:24.766Z,3.00
2023-03-03T10:25:08.632Z,3.10
2023-03-03T10:27:55.929Z,3.30
2023-03-03T10:30:42.557Z,3.30
2023-03-03T10:33:25.112Z,3.60
2023-03-03T10:36:24.392Z,3.80
2023-03-03T10:39:11.395Z,3.80
2023-03-03T10:42:21.076Z,3.90
2023-03-03T10:45:30.088Z,4.40
2023-03-03T10:48:38.683Z,4.40
2023-03-03T10:51:24.407Z,4.60
2023-03-03T10:54:08.061Z,4.70
2023-03-03T10:56:53.242Z,4.80
2023-03-03T10:59:54.349Z,4.80
2023-03-03T11:02:30.246Z,4.90
2023-03-03T11:05:20.527Z,5.00
2023-03-03T11:07:53.981Z,5.00
2023-03-03T11:10:39.268Z,5.00
2023-03-03T11:13:19.658Z,5.00
2023-03-03T11:16:07.271Z,5.10
2023-03-03T11:18:50.654Z,5.20
2023-03-03T11:21:26.419Z,5.10
2023-03-03T11:24:20.684Z,5.20
2023-03-03T11:27:19.570Z,5.20
2023-03-03T11:30:08.598Z,5.40
2023-03-03T11:32:46.405Z,5.30
2023-03-03T11:35:38.777Z,5.40
2023-03-03T11:38:29.128Z,5.40
2023-03-03T11:41:01.293Z,5.40
2023-03-03T11:43:37.405Z,5.50
2023-03-03T11:46:12.598Z,5.50
2023-03-03T11:48:50.126Z,5.60
2023-03-03T11:51:31.348Z,5.60
2023-03-03T11:54:06.641Z,5.60
2023-03-03T11:56:42.044Z,5.60
2023-03-03T11:59:40.832Z,5.60
2023-03-03T12:02:58.370Z,5.70
2023-03-03T12:05:43.188Z,5.60
2023-03-03T12:08:41.735Z,5.50
2023-03-03T12:11:17.428Z,5.40
2023-03-03T12:13:57.389Z,5.50
2023-03-03T12:16:44.572Z,5.60
2023-03-03T12:19:39.797Z,5.70
2023-03-03T12:22:30.853Z,5.80
2023-03-03T12:25:28.241Z,5.80
2023-03-03T12:28:05.737Z,5.80
2023-03-03T12:30:50.951Z,5.80
2023-03-03T12:33:30.126Z,6.00
2023-03-03T12:36:15.512Z,6.00
2023-03-03T12:38:54.115Z,6.20
2023-03-03T12:41:30.910Z,6.10
2023-03-03T12:44:05.524Z,6.20
2023-03-03T12:46:46.438Z,6.30
2023-03-03T12:49:15.060Z,6.40
2023-03-03T12:52:02.461Z,6.40
2023-03-03T12:54:53.627Z,6.40
2023-03-03T12:57:34.318Z,6.40
2023-03-03T13:00:21.859Z,6.40
2023-03-03T13:03:02.205Z,6.40
2023-03-03T13:05:46.114Z,6.40
2023-03-03T13:08:48.918Z,6.50
2023-03-03T13:11:40.838Z,6.50
2023-03-03T13:14:22.825Z,6.40
2023-03-03T13:17:05.199Z,6.30
2023-03-03T13:19:39.242Z,6.10
2023-03-03T13:22:14.924Z,6.20
2023-03-03T13:24:57.535Z,6.30
2023-03-03T13:27:29.448Z,6.30
2023-03-03T13:30:04.132Z,6.10
2023-03-03T13:32:42.744Z,6.20
2023-03-03T13:35:32.017Z,6.20
2023-03-03T13:38:03.218Z,6.20
2023-03-03T13:40:44.086Z,6.30
2023-03-03T13:43:19.781Z,6.30
2023-03-03T13:46:02.905Z,6.30
2023-03-03T13:49:03.614Z,6.40
2023-03-03T13:51:43.962Z,6.30
2023-03-03T13:54:36.128Z,6.40
2023-03-03T13:57:24.860Z,6.30
2023-03-03T14:00:06.674Z,6.50
2023-03-03T14:03:03.833Z,6.50
2023-03-03T14:05:39.344Z,6.60
2023-03-03T14:08:21.215Z,6.60
2023-03-03T14:11:04.214Z,6.50
2023-03-03T14:13:44.529Z,6.30
2023-03-03T14:16:18.994Z,6.30
2023-03-03T14:18:58.014Z,6.30
2023-03-03T14:21:32.989Z,6.20
2023-03-03T14:24:09.825Z,6.00
2023-03-03T14:26:49.754Z,6.10
2023-03-03T14:29:32.422Z,6.30
2023-03-03T14:32:03.131Z,6.30
2023-03-03T14:34:41.573Z,6.40
2023-03-03T14:37:27.834Z,6.40
2023-03-03T14:40:15.145Z,6.50
2023-03-03T14:42:50.441Z,6.40
2023-03-03T14:45:36.638Z,6.20
2023-03-03T14:48:18.076Z,6.30
2023-03-03T14:50:52.265Z,6.20
2023-03-03T14:53:34.040Z,6.30
2023-03-03T14:56:25.225Z,6.40
2023-03-03T14:58:55.498Z,6.40
2023-03-03T15:01:33.740Z,6.40
2023-03-03T15:04:04.574Z,6.30
2023-03-03T15:06:43.237Z,6.40
2023-03-03T15:09:36.830Z,6.50
2023-03-03T15:12:21.808Z,6.40
2023-03-03T15:14:52.402Z,6.40
2023-03-03T15:17:32.272Z,6.40
2023-03-03T15:20:33.594Z,6.50
2023-03-03T15:23:29.532Z,6.50
2023-03-03T15:26:03.353Z,6.50
2023-03-03T15:28:47.674Z,6.40
2023-03-03T15:31:30.315Z,6.40
2023-03-03T15:34:09.433Z,6.30
2023-03-03T15:36:45.400Z,6.30
2023-03-03T15:39:24.440Z,6.30
2023-03-03T15:42:04.344Z,6.30
2023-03-03T15:44:49.194Z,6.20
2023-03-03T15:47:40.736Z,6.20
2023-03-03T15:50:47.129Z,6.10
2023-03-03T15:53:30.582Z,6.10
2023-03-03T15:56:11.124Z,6.00
2023-03-03T15:59:21.748Z,6.00
2023-03-03T16:02:01.039Z,6.00
2023-03-03T16:04:34.333Z,6.00
2023-03-03T16:07:15.358Z,6.00
2023-03-03T16:09:57.582Z,6.00
2023-03-03T16:12:41.308Z,5.90
2023-03-03T16:15:53.602Z,5.70
2023-03-03T16:18:37.700Z,5.60
2023-03-03T16:21:22.958Z,5.50
2023-03-03T16:23:56.317Z,5.20
2023-03-03T16:26:43.683Z,5.00
2023-03-03T16:29:28.366Z,4.90
2023-03-03T16:32:05.327Z,4.70
2023-03-03T16:34:45.792Z,4.60
2023-03-03T16:37:22.210Z,4.50
2023-03-03T16:40:03.022Z,4.40
2023-03-03T16:42:33.319Z,4.30
2023-03-03T16:45:25.254Z,4.20
2023-03-03T16:48:23.216Z,4.20
2023-03-03T16:51:05.996Z,4.00
2023-03-03T16:53:51.779Z,3.90
2023-03-03T16:56:25.580Z,3.90
2023-03-03T16:59:43.708Z,3.90
2023-03-03T17:02:43.657Z,3.80
2023-03-03T17:05:25.140Z,3.60
2023-03-03T17:08:11.752Z,3.50
2023-03-03T17:10:44.173Z,3.50
2023-03-03T17:13:54.479Z,3.30
2023-03-03T17:16:49.814Z,3.20
2023-03-03T17:19:38.307Z,3.00
2023-03-03T17:22:19.746Z,2.80
2023-03-03T17:25:05.178Z,1.60
2023-03-03T17:27:52.143Z,2.40
2023-03-03T17:30:28.689Z,2.30
2023-03-03T17:33:29.942Z,2.30
2023-03-03T17:36:32.375Z,2.30
2023-03-03T17:39:14.671Z,2.10
2023-03-03T17:41:52.319Z,2.10
2023-03-03T17:44:33.752Z,1.80
2023-03-03T17:47:08.353Z,1.80
2023-03-03T17:49:58.939Z,1.80
2023-03-03T17:53:06.928Z,1.80
2023-03-03T17:55:59.793Z,1.90
2023-03-03T17:59:28.505Z,1.70
2023-03-03T18:02:30.466Z,1.60
2023-03-03T18:05:43.881Z,1.80
2023-03-03T18:08:29.508Z,-0.10
2023-03-03T18:11:23.733Z,1.60
2023-03-03T18:14:29.163Z,1.50
2023-03-03T18:17:43.297Z,1.40
2023-03-03T18:21:02.067Z,1.40
2023-03-03T18:23:39.832Z,1.20
2023-03-03T18:26:40.347Z,1.20
2023-03-03T18:29:21.452Z,1.10
2023-03-03T18:32:21.578Z,1.20
2023-03-03T18:34:52.638Z,1.20
2023-03-03T18:37:43.927Z,1.20
2023-03-03T18:40:35.240Z,0.90
2023-03-03T18:43:49.560Z,0.60
2023-03-03T18:46:55.777Z,0.40
2023-03-03T18:49:55.697Z,0.40
2023-03-03T18:52:29.518Z,0.30
2023-03-03T18:55:27.692Z,0.20
2023-03-03T18:58:32.905Z,0.20
2023-03-03T19:01:39.203Z,0.10
2023-03-03T19:04:25.566Z,0.00
2023-03-03T19:07:26.865Z,-0.10
2023-03-03T19:10:02.825Z,-0.20
2023-03-03T19:12:52.824Z,-0.20
2023-03-03T19:16:00.102Z,-0.30
2023-03-03T19:18:30.163Z,-0.30
2023-03-03T19:21:02.388Z,-0.30
2023-03-03T19:23:51.320Z,-0.30
2023-03-03T19:26:45.933Z,-0.40
2023-03-03T19:29:33.377Z,-0.40
2023-03-03T19:32:24.867Z,-0.40
2023-03-03T19:35:01.715Z,-0.50
2023-03-03T19:37:42.547Z,-0.40
2023-03-03T19:40:23.432Z,-0.40
2023-03-03T19:43:02.484Z,-0.30
2023-03-03T19:45:49.180Z,-0.30
2023-03-03T19:48:28.851Z,-0.40
2023-03-03T19:51:08.755Z,-0.40
2023-03-03T19:53:48.523Z,-0.40
2023-03-03T19:56:24.416Z,-0.40
2023-03-03T19:59:09.003Z,-0.50
2023-03-03T20:01:51.722Z,-0.50
2023-03-03T20:05:00.460Z,-0.60
2023-03-03T20:07:35.182Z,-0.60
2023-03-03T20:10:23.517Z,-0.60
2023-03-03T20:13:04.663Z,-0.70
2023-03-03T20:15:49.236Z,-0.80
2023-03-03T20:19:00.807Z,-0.80
2023-03-03T20:21:35.918Z,-0.80
2023-03-03T20:24:47.029Z,-0.90
2023-03-03T20:27:20.016Z,-0.90
2023-03-03T20:30:09.334Z,-1.00
2023-03-03T20:32:56.473Z,-1.00
2023-03-03T20:35:38.277Z,-1.10
2023-03-03T20:38:21.295Z,-1.10
2023-03-03T20:41:00.569Z,-1.00
2023-03-03T20:43:47.474Z,-1.00
2023-03-03T20:46:24.347Z,-1.00
2023-03-03T20:49:15.461Z,-1.00
2023-03-03T20:51:51.316Z,-1.00
2023-03-03T20:54:31.528Z,-1.10
2023-03-03T20:57:09.276Z,-1.10
2023-03-03T20:59:45.804Z,-1.10
2023-03-03T21:02:26.355Z,-1.10
2023-03-03T21:05:13.554Z,-1.00
2023-03-03T21:07:54.791Z,-1.00
2023-03-03T21:10:25.752Z,-1.00
2023-03-03T21:12:56.603Z,-1.10
2023-03-03T21:15:34.287Z,-1.00
2023-03-03T21:18:23.891Z,-1.00
2023-03-03T21:20:53.622Z,-1.00
2023-03-03T21:23:23.169Z,-1.10
2023-03-03T21:25:53.363Z,-1.10
2023-03-03T21:28:25.947Z,-1.30
2023-03-03T21:31:07.480Z,-1.30
2023-03-03T21:33:54.164Z,-1.30
2023-03-03T21:36:25.668Z,-1.20
2023-03-03T21:41:57.266Z,-1.30
2023-03-03T21:44:38.334Z,-1.40
2023-03-03T21:47:09.033Z,-1.40
2023-03-03T21:49:42.972Z,-1.40
2023-03-03T21:52:12.265Z,-1.50
2023-03-03T21:54:41.172Z,-1.50
2023-03-03T21:57:10.267Z,-1.60
2023-03-03T21:59:38.780Z,-1.70
2023-03-03T22:02:09.609Z,-1.60
2023-03-03T22:04:39.596Z,-1.80
2023-03-03T22:07:09.192Z,-1.90
2023-03-03T22:09:39.217Z,-1.90
2023-03-03T22:12:08.755Z,-2.00
2023-03-03T22:14:37.485Z,-2.00
2023-03-03T22:17:06.021Z,-2.00
2023-03-03T22:19:34.592Z,-2.00
2023-03-03T22:22:04.422Z,-2.00
2023-03-03T22:24:33.516Z,-2.00
2023-03-03T22:27:02.035Z,-2.00
2023-03-03T22:29:30.500Z,-1.90
2023-03-03T22:31:59.021Z,-1.90
2023-03-03T22:34:27.779Z,-1.90
2023-03-03T22:36:56.312Z,-1.80
2023-03-03T22:39:26.252Z,-1.80
2023-03-03T22:41:55.209Z,-1.80
2023-03-03T22:44:23.699Z,-1.60
2023-03-03T22:46:52.209Z,-1.60
2023-03-03T22:49:20.673Z,-1.60
2023-03-03T22:51:49.398Z,-1.60
2023-03-03T22:54:17.890Z,-1.50
2023-03-03T22:56:48.243Z,-1.50
2023-03-03T22:59:16.853Z,-1.50
2023-03-03T23:01:45.529Z,-1.50
2023-03-03T23:04:14.092Z,-1.50
2023-03-03T23:06:43.962Z,-1.50
2023-03-03T23:09:12.548Z,-1.60
2023-03-03T23:11:43.426Z,-1.80
2023-03-03T23:14:13.558Z,-1.80
2023-03-03T23:16:42.075Z,-1.80
2023-03-03T23:19:10.618Z,-1.90
2023-03-03T23:21:39.360Z,-1.90
2023-03-03T23:24:11.154Z,-2.00
2023-03-03T23:26:40.223Z,-2.00
2023-03-03T23:29:08.975Z,-2.20
2023-03-03T23:31:38.923Z,-2.20
2023-03-03T23:34:07.650Z,-2.20
2023-03-03T23:36:36.321Z,-2.10
2023-03-03T23:39:04.967Z,-2.20
2023-03-03T23:41:34.525Z,-2.30
2023-03-03T23:44:03.064Z,-2.40
2023-03-03T23:46:31.871Z,-2.30
2023-03-03T23:49:02.411Z,-2.40
2023-03-03T23:51:31.021Z,-2.40
2023-03-03T23:53:59.779Z,-2.50
2023-03-03T23:56:29.546Z,-2.60
2023-03-03T23:58:58.257Z,-2.60
